Time;durP1;ratioP1;P1;durP2;ratioP2;P2;SDS_P1;SDS_P2;PMS_P1;PMS_P2;Temp;Humidity;BMP_temperature;BMP_pressure;BME280_temperature;BME280_humidity;BME280_pressure;Samples;Min_cycle;Max_cycle;Signal;HPM_P1;HPM_P2
2022/07/08 00:07:10;;;;;;;5.28;1.20;;;16.30;99.90;;;;;;6742116;88;20220;-79
2022/07/08 00:17:10;;;;;;;7.22;1.20;;;16.20;99.90;;;;;;6742385;88;20225;-79
2022/07/08 00:27:13;;;;;;;7.07;1.48;;;16.30;99.90;;;;;;6744858;88;20214;-78
2022/07/08 00:37:13;;;;;;;7.70;1.00;;;16.10;99.90;;;;;;6745359;88;20331;-79
2022/07/08 00:47:14;;;;;;;5.93;1.17;;;16.00;99.90;;;;;;6745399;88;20259;-79
2022/07/08 00:57:16;;;;;;;5.72;1.33;;;16.00;99.90;;;;;;6743709;88;20311;-79
2022/07/08 01:07:18;;;;;;;7.95;1.48;;;15.90;99.90;;;;;;6745266;88;20233;-79
2022/07/08 01:17:19;;;;;;;8.32;1.27;;;15.60;99.90;;;;;;6744982;88;20311;-79
2022/07/08 01:27:19;;;;;;;7.65;1.50;;;15.50;99.90;;;;;;6744140;88;20261;-79
2022/07/08 01:37:20;;;;;;;4.93;1.40;;;15.60;99.90;;;;;;6740956;88;20690;-78
2022/07/08 01:47:20;;;;;;;7.57;1.42;;;15.70;99.90;;;;;;6744384;88;20581;-79
2022/07/08 01:57:21;;;;;;;7.20;1.52;;;15.70;99.90;;;;;;6745048;88;20748;-79
2022/07/08 02:07:22;;;;;;;5.65;1.58;;;15.70;99.90;;;;;;6746740;88;20241;-79
2022/07/08 02:17:23;;;;;;;6.50;1.45;;;15.60;99.90;;;;;;6741130;88;20258;-78
2022/07/08 02:27:24;;;;;;;7.22;1.33;;;15.40;99.90;;;;;;6741390;88;20188;-79
2022/07/08 02:37:24;;;;;;;5.65;1.30;;;15.50;99.90;;;;;;6744454;88;20195;-79
2022/07/08 02:47:25;;;;;;;6.37;1.70;;;15.60;99.90;;;;;;6734434;88;20277;-79
2022/07/08 02:57:26;;;;;;;11.05;1.60;;;15.70;99.90;;;;;;6722992;88;21021;-79
2022/07/08 03:07:26;;;;;;;11.77;1.58;;;15.70;99.90;;;;;;6721562;88;20221;-80
2022/07/08 03:17:27;;;;;;;5.85;1.55;;;15.90;99.90;;;;;;6725420;88;20312;-79
2022/07/08 03:27:27;;;;;;;7.90;1.60;;;15.80;99.90;;;;;;6721188;88;20193;-78
2022/07/08 03:37:28;;;;;;;6.60;1.45;;;15.80;99.90;;;;;;6739297;88;20242;-79
2022/07/08 03:47:28;;;;;;;7.53;1.85;;;15.70;99.90;;;;;;6739902;88;20581;-80
2022/07/08 03:57:29;;;;;;;8.13;1.75;;;15.80;99.90;;;;;;6744171;88;20666;-79
2022/07/08 04:07:31;;;;;;;6.05;1.42;;;15.70;99.90;;;;;;6711355;88;20198;-79
2022/07/08 04:17:33;;;;;;;5.43;1.48;;;15.80;99.90;;;;;;6707148;88;20642;-80
2022/07/08 04:27:34;;;;;;;6.80;1.62;;;15.70;99.90;;;;;;6711847;88;20208;-80
2022/07/08 04:37:34;;;;;;;10.60;1.30;;;15.70;99.90;;;;;;6711478;88;20189;-79
2022/07/08 04:47:35;;;;;;;6.78;1.60;;;15.90;99.90;;;;;;6711102;88;20377;-80
2022/07/08 04:57:35;;;;;;;4.20;1.48;;;16.00;99.90;;;;;;6711378;88;20276;-80
2022/07/08 05:07:36;;;;;;;6.87;1.77;;;16.10;99.90;;;;;;6712160;88;20766;-80
2022/07/08 05:17:38;;;;;;;5.43;1.55;;;16.20;99.90;;;;;;6711661;88;20303;-80
2022/07/08 05:27:39;;;;;;;5.28;1.48;;;16.40;99.90;;;;;;6711322;88;20202;-82
2022/07/08 05:37:40;;;;;;;5.90;1.35;;;16.60;99.90;;;;;;6710449;88;20194;-80
2022/07/08 05:47:41;;;;;;;6.20;1.70;;;16.60;99.90;;;;;;6710821;88;20647;-80
2022/07/08 05:57:42;;;;;;;5.95;1.42;;;16.60;99.90;;;;;;6713223;88;20194;-81
2022/07/08 06:07:42;;;;;;;7.93;1.70;;;16.70;99.90;;;;;;6719522;88;20301;-81
2022/07/08 06:17:43;;;;;;;6.40;1.90;;;16.40;99.90;;;;;;6725337;88;20202;-81
2022/07/08 06:27:43;;;;;;;5.20;1.90;;;16.50;99.90;;;;;;6732146;88;20225;-79
2022/07/08 06:37:44;;;;;;;5.80;1.90;;;16.90;99.90;;;;;;6737422;88;20229;-80
2022/07/08 06:47:45;;;;;;;9.70;2.33;;;17.00;99.90;;;;;;6743437;88;20165;-82
2022/07/08 06:57:45;;;;;;;9.95;2.03;;;17.20;99.90;;;;;;6745400;88;20273;-80
2022/07/08 07:07:46;;;;;;;9.98;2.62;;;17.50;99.90;;;;;;6743190;88;20797;-81
2022/07/08 07:17:47;;;;;;;11.00;4.35;;;17.50;99.90;;;;;;6742573;88;20264;-80
2022/07/08 07:27:47;;;;;;;9.85;3.60;;;17.70;99.90;;;;;;6742122;88;20197;-81
2022/07/08 07:37:48;;;;;;;12.15;3.95;;;17.90;99.90;;;;;;6741678;88;20173;-81
2022/07/08 07:47:49;;;;;;;10.88;3.78;;;19.00;99.90;;;;;;6741084;88;20231;-82
2022/07/08 07:57:49;;;;;;;7.72;4.05;;;20.30;99.90;;;;;;6739781;88;20185;-81
2022/07/08 08:07:50;;;;;;;12.37;7.05;;;20.70;99.90;;;;;;6738703;88;20210;-81
2022/07/08 08:17:50;;;;;;;10.90;5.20;;;21.60;98.90;;;;;;6734368;88;20215;-82
2022/07/08 08:27:51;;;;;;;11.12;4.25;;;22.10;97.30;;;;;;6734516;88;20650;-80
2022/07/08 08:37:51;;;;;;;8.73;3.83;;;23.00;94.10;;;;;;6737950;88;20718;-81
2022/07/08 08:47:52;;;;;;;7.32;2.30;;;23.60;91.80;;;;;;6739014;88;20218;-81
2022/07/08 08:57:57;;;;;;;6.35;2.22;;;22.40;92.50;;;;;;6687253;89;20757;-82
2022/07/08 09:07:58;;;;;;;5.32;2.67;;;20.80;98.20;;;;;;6688238;89;20342;-80
2022/07/08 09:18:03;;;;;;;8.15;2.22;;;22.30;92.90;;;;;;6704840;88;20669;-82
2022/07/08 09:28:04;;;;;;;6.93;2.37;;;23.40;91.40;;;;;;6736600;88;20258;-80
2022/07/08 09:38:06;;;;;;;7.32;2.53;;;22.40;91.90;;;;;;6740082;88;20872;-81
2022/07/08 09:48:08;;;;;;;6.43;2.42;;;22.90;91.00;;;;;;6741869;88;20186;-81
2022/07/08 09:58:13;;;;;;;5.72;2.50;;;24.40;88.40;;;;;;6741178;88;20252;-80
2022/07/08 10:08:15;;;;;;;5.45;1.90;;;24.30;85.70;;;;;;6738426;88;20252;-82
2022/07/08 10:18:22;;;;;;;6.22;1.70;;;24.50;86.50;;;;;;6739334;88;20193;-81
2022/07/08 10:28:43;;;;;;;5.68;1.65;;;24.90;83.30;;;;;;6743082;88;20188;-82
2022/07/08 10:38:43;;;;;;;5.22;1.70;;;25.20;83.00;;;;;;6725427;88;20234;-81
2022/07/08 10:48:44;;;;;;;6.67;1.57;;;26.60;80.50;;;;;;6723057;88;20803;-81
2022/07/08 10:59:20;;;;;;;5.40;1.80;;;27.50;79.60;;;;;;6726297;88;20512;-82
2022/07/08 11:09:22;;;;;;;5.95;1.52;;;28.10;77.30;;;;;;6726943;88;20198;-82
2022/07/08 11:19:30;;;;;;;6.93;1.70;;;28.30;75.30;;;;;;6726607;88;20192;-82
2022/07/08 11:29:32;;;;;;;4.50;1.42;;;28.20;75.50;;;;;;6727773;88;20201;-82
2022/07/08 11:39:33;;;;;;;4.53;1.60;;;29.40;75.00;;;;;;6740097;88;20617;-82
2022/07/08 11:49:40;;;;;;;5.63;1.83;;;28.30;74.60;;;;;;6740372;88;20308;-82
2022/07/08 11:59:44;;;;;;;4.70;1.70;;;29.60;73.20;;;;;;6712873;88;20244;-82
2022/07/08 12:10:05;;;;;;;6.03;1.80;;;29.40;71.60;;;;;;6718526;88;20334;-82
2022/07/08 12:20:06;;;;;;;5.22;1.73;;;29.20;72.00;;;;;;6725966;88;20240;-82
2022/07/08 12:30:08;;;;;;;6.67;1.50;;;29.10;71.70;;;;;;6720106;88;20201;-83
2022/07/08 12:40:35;;;;;;;5.63;1.47;;;28.80;73.60;;;;;;6716319;88;20227;-83
2022/07/08 12:50:35;;;;;;;3.95;1.60;;;28.70;73.50;;;;;;6737385;88;20195;-82
2022/07/08 13:00:36;;;;;;;6.90;1.70;;;29.90;71.40;;;;;;6736070;88;20583;-82
2022/07/08 13:10:37;;;;;;;4.87;1.47;;;30.50;71.30;;;;;;6735274;88;20177;-81
2022/07/08 13:20:38;;;;;;;6.43;1.50;;;30.30;71.30;;;;;;6735581;88;20252;-82
2022/07/08 13:30:38;;;;;;;6.40;1.40;;;29.90;70.90;;;;;;6737377;88;20725;-82
2022/07/08 13:40:39;;;;;;;5.97;1.40;;;29.40;71.50;;;;;;6732061;88;20213;-83
2022/07/08 13:50:39;;;;;;;6.00;1.17;;;29.20;71.10;;;;;;6735301;88;20506;-82
2022/07/08 14:00:40;;;;;;;4.10;1.40;;;28.60;73.40;;;;;;6735273;88;20209;-81
2022/07/08 14:10:41;;;;;;;5.22;1.40;;;28.40;73.00;;;;;;6734000;88;20835;-82
2022/07/08 14:20:41;;;;;;;5.87;1.40;;;28.00;75.10;;;;;;6733642;88;20202;-81
2022/07/08 14:30:42;;;;;;;4.40;1.20;;;28.10;75.40;;;;;;6732553;88;20294;-82
2022/07/08 14:40:44;;;;;;;4.37;1.30;;;27.40;75.60;;;;;;6733074;88;20606;-82
2022/07/08 14:50:45;;;;;;;5.35;1.15;;;27.40;75.40;;;;;;6732338;88;20214;-81
2022/07/08 15:00:46;;;;;;;7.32;1.45;;;28.80;75.20;;;;;;6715223;88;20186;-81
2022/07/08 15:10:46;;;;;;;3.10;0.90;;;29.00;74.50;;;;;;6715112;88;20197;-83
2022/07/08 15:20:47;;;;;;;5.35;1.15;;;29.00;75.00;;;;;;6712000;88;20216;-82
2022/07/08 15:30:47;;;;;;;4.67;1.20;;;28.50;75.40;;;;;;6732790;88;20193;-81
2022/07/08 15:40:49;;;;;;;3.75;1.12;;;28.90;74.60;;;;;;6726790;88;20189;-80
2022/07/08 15:50:50;;;;;;;3.73;1.20;;;28.20;75.70;;;;;;6711846;88;20190;-79
2022/07/08 16:00:51;;;;;;;4.95;1.42;;;27.10;77.10;;;;;;6712921;88;20197;-79
2022/07/08 16:10:51;;;;;;;4.30;1.52;;;25.80;80.80;;;;;;6708623;88;20198;-78
2022/07/08 16:20:52;;;;;;;5.95;1.40;;;26.50;79.80;;;;;;6726100;88;20316;-80
2022/07/08 16:30:53;;;;;;;5.70;1.33;;;26.20;80.20;;;;;;6733919;88;20266;-80
2022/07/08 16:40:53;;;;;;;4.85;1.30;;;25.00;89.40;;;;;;6731055;88;20212;-79
2022/07/08 16:50:54;;;;;;;5.80;1.50;;;25.30;87.20;;;;;;6722131;88;20748;-78
2022/07/08 17:00:54;;;;;;;5.40;1.40;;;25.50;85.90;;;;;;6725485;88;20541;-77
2022/07/08 17:10:55;;;;;;;4.87;1.48;;;26.00;88.00;;;;;;6734405;88;20235;-78
2022/07/08 17:20:58;;;;;;;5.28;1.73;;;26.40;84.50;;;;;;6727614;88;20202;-78
2022/07/08 17:30:59;;;;;;;;;;;25.50;86.10;;;;;;6723383;88;20207;-79
2022/07/08 17:41:00;;;;;;;5.87;1.52;;;25.60;85.80;;;;;;6730668;88;20505;-78
2022/07/08 17:51:00;;;;;;;3.42;1.65;;;25.70;85.00;;;;;;6727248;88;20187;-78
2022/07/08 18:01:01;;;;;;;4.53;1.90;;;25.50;85.70;;;;;;6738629;77;20214;-82
2022/07/08 18:11:01;;;;;;;2.87;1.40;;;25.00;87.30;;;;;;6718014;88;20193;-79
2022/07/08 18:21:02;;;;;;;4.43;1.30;;;24.50;89.30;;;;;;6732132;88;20216;-81
2022/07/08 18:31:04;;;;;;;4.82;1.58;;;24.60;90.00;;;;;;6731934;88;20176;-81
2022/07/08 18:41:05;;;;;;;3.20;1.70;;;26.20;85.40;;;;;;6718692;88;20235;-78
2022/07/08 18:51:05;;;;;;;3.25;1.30;;;25.60;86.30;;;;;;6723522;88;20201;-79
2022/07/08 19:01:06;;;;;;;4.70;1.20;;;25.00;87.90;;;;;;6720234;88;20190;-79
2022/07/08 19:11:07;;;;;;;1.83;1.08;;;24.50;89.80;;;;;;6709180;88;20193;-80
2022/07/08 19:21:07;;;;;;;2.28;1.23;;;24.10;91.20;;;;;;6715233;88;20178;-83
2022/07/08 19:31:08;;;;;;;2.37;1.10;;;24.00;92.50;;;;;;6723302;88;20198;-82
2022/07/08 19:41:08;;;;;;;6.97;1.58;;;23.80;93.60;;;;;;6706080;88;20199;-82
2022/07/08 19:51:09;;;;;;;2.80;1.50;;;23.70;94.30;;;;;;6705717;88;20757;-81
2022/07/08 20:01:10;;;;;;;4.03;1.52;;;23.60;95.10;;;;;;6725038;88;20178;-83
2022/07/08 20:11:10;;;;;;;2.80;1.33;;;23.20;96.10;;;;;;6732275;88;20167;-83
2022/07/08 20:21:11;;;;;;;3.90;1.37;;;22.90;98.00;;;;;;6731361;88;20173;-83
2022/07/08 20:31:11;;;;;;;3.53;1.55;;;23.10;98.30;;;;;;6725595;88;20189;-82
2022/07/08 20:52:33;;;;;;;4.43;2.00;;;22.30;99.90;;;;;;6818569;77;20156;-82
2022/07/08 21:02:34;;;;;;;5.30;1.80;;;21.90;99.90;;;;;;6770373;88;20169;-82
2022/07/08 21:12:34;;;;;;;5.12;2.00;;;21.50;99.90;;;;;;6769043;88;20255;-83
2022/07/08 21:22:35;;;;;;;4.17;1.80;;;21.10;99.90;;;;;;6769116;88;20174;-83
2022/07/08 21:32:36;;;;;;;3.90;1.70;;;21.10;99.90;;;;;;6769036;88;20528;-80
2022/07/08 21:42:37;;;;;;;5.68;2.25;;;20.80;99.90;;;;;;6768995;88;20461;-80
2022/07/08 21:52:37;;;;;;;2.72;1.80;;;20.90;99.90;;;;;;6768562;87;20727;-80
2022/07/08 22:02:39;;;;;;;5.28;2.10;;;20.80;99.90;;;;;;6757824;88;20211;-81
2022/07/08 22:12:40;;;;;;;5.22;2.37;;;20.70;99.90;;;;;;6752528;88;20184;-81
2022/07/08 22:22:40;;;;;;;4.62;2.50;;;20.50;99.90;;;;;;6756649;88;20211;-81
2022/07/08 22:32:42;;;;;;;6.78;2.30;;;20.60;99.90;;;;;;6758389;88;20219;-81
2022/07/08 22:42:44;;;;;;;6.37;2.92;;;20.30;99.90;;;;;;6758328;88;20287;-81
2022/07/08 22:52:44;;;;;;;5.35;2.50;;;20.10;99.90;;;;;;6756161;88;20226;-80
2022/07/08 23:02:45;;;;;;;6.20;2.55;;;19.60;99.90;;;;;;6752921;88;20692;-81
2022/07/08 23:12:45;;;;;;;5.22;3.08;;;19.70;99.90;;;;;;6752255;88;20183;-81
2022/07/08 23:22:46;;;;;;;4.03;2.17;;;19.60;99.90;;;;;;6752131;88;20311;-81
2022/07/08 23:32:48;;;;;;;4.75;2.30;;;19.30;99.90;;;;;;6752683;88;20188;-82
2022/07/08 23:42:50;;;;;;;6.03;2.28;;;19.40;99.90;;;;;;6700636;89;20644;-81
2022/07/08 23:52:51;;;;;;;12.23;5.20;;;19.10;99.90;;;;;;6748295;88;20294;-81
